sensor_id;sensor_type;location;lat;lon;timestamp;P1;durP1;ratioP1;P2;durP2;ratioP2
76405;SDS011;65234;50.044;19.258;2023-03-15T00:01:39;50.38;;;47.95;;
76405;SDS011;65234;50.044;19.258;2023-03-15T00:04:05;47.72;;;45.35;;
76405;SDS011;65234;50.044;19.258;2023-03-15T00:06:32;48.53;;;46.22;;
76405;SDS011;65234;50.044;19.258;2023-03-15T00:08:58;47.75;;;45.42;;
76405;SDS011;65234;50.044;19.258;2023-03-15T00:11:24;46.85;;;44.65;;
76405;SDS011;65234;50.044;19.258;2023-03-15T00:13:50;47.08;;;44.47;;
76405;SDS011;65234;50.044;19.258;2023-03-15T00:16:16;45.80;;;43.55;;
76405;SDS011;65234;50.044;19.258;2023-03-15T00:18:42;44.63;;;42.58;;
76405;SDS011;65234;50.044;19.258;2023-03-15T00:21:07;42.80;;;40.60;;
76405;SDS011;65234;50.044;19.258;2023-03-15T00:23:34;41.45;;;39.38;;
76405;SDS011;65234;50.044;19.258;2023-03-15T00:26:00;41.72;;;39.55;;
76405;SDS011;65234;50.044;19.258;2023-03-15T00:28:26;41.08;;;39.08;;
76405;SDS011;65234;50.044;19.258;2023-03-15T00:31:01;40.33;;;38.33;;
76405;SDS011;65234;50.044;19.258;2023-03-15T00:33:28;39.33;;;37.33;;
76405;SDS011;65234;50.044;19.258;2023-03-15T00:35:53;39.67;;;37.75;;
76405;SDS011;65234;50.044;19.258;2023-03-15T00:38:19;41.03;;;39.03;;
76405;SDS011;65234;50.044;19.258;2023-03-15T00:40:46;39.83;;;37.92;;
76405;SDS011;65234;50.044;19.258;2023-03-15T00:43:12;41.00;;;38.90;;
76405;SDS011;65234;50.044;19.258;2023-03-15T00:45:37;41.28;;;39.33;;
76405;SDS011;65234;50.044;19.258;2023-03-15T00:48:03;40.83;;;38.42;;
76405;SDS011;65234;50.044;19.258;2023-03-15T00:50:29;39.03;;;36.95;;
76405;SDS011;65234;50.044;19.258;2023-03-15T00:52:55;41.75;;;39.65;;
76405;SDS011;65234;50.044;19.258;2023-03-15T00:55:21;38.15;;;36.38;;
76405;SDS011;65234;50.044;19.258;2023-03-15T00:57:48;38.30;;;36.53;;
76405;SDS011;65234;50.044;19.258;2023-03-15T01:00:15;37.25;;;35.53;;
76405;SDS011;65234;50.044;19.258;2023-03-15T01:02:43;38.28;;;36.53;;
76405;SDS011;65234;50.044;19.258;2023-03-15T01:05:09;38.65;;;36.75;;
76405;SDS011;65234;50.044;19.258;2023-03-15T01:07:35;37.63;;;35.83;;
76405;SDS011;65234;50.044;19.258;2023-03-15T01:10:01;37.58;;;35.78;;
76405;SDS011;65234;50.044;19.258;2023-03-15T01:12:30;39.72;;;37.75;;
76405;SDS011;65234;50.044;19.258;2023-03-15T01:14:58;37.08;;;35.38;;
76405;SDS011;65234;50.044;19.258;2023-03-15T01:17:24;39.85;;;37.75;;
76405;SDS011;65234;50.044;19.258;2023-03-15T01:19:50;39.28;;;37.17;;
76405;SDS011;65234;50.044;19.258;2023-03-15T01:22:16;37.63;;;35.72;;
76405;SDS011;65234;50.044;19.258;2023-03-15T01:24:42;37.50;;;35.67;;
76405;SDS011;65234;50.044;19.258;2023-03-15T01:27:08;38.25;;;36.40;;
76405;SDS011;65234;50.044;19.258;2023-03-15T01:29:34;38.53;;;36.38;;
76405;SDS011;65234;50.044;19.258;2023-03-15T01:32:01;36.30;;;34.55;;
76405;SDS011;65234;50.044;19.258;2023-03-15T01:34:27;38.13;;;36.33;;
76405;SDS011;65234;50.044;19.258;2023-03-15T01:36:52;37.75;;;35.80;;
76405;SDS011;65234;50.044;19.258;2023-03-15T01:39:18;38.53;;;36.42;;
76405;SDS011;65234;50.044;19.258;2023-03-15T01:41:44;37.08;;;35.30;;
76405;SDS011;65234;50.044;19.258;2023-03-15T01:44:11;37.92;;;35.67;;
76405;SDS011;65234;50.044;19.258;2023-03-15T01:46:38;36.50;;;34.78;;
76405;SDS011;65234;50.044;19.258;2023-03-15T01:49:05;35.30;;;33.70;;
76405;SDS011;65234;50.044;19.258;2023-03-15T01:51:33;38.45;;;36.45;;
76405;SDS011;65234;50.044;19.258;2023-03-15T01:54:04;35.20;;;33.40;;
76405;SDS011;65234;50.044;19.258;2023-03-15T01:56:33;38.33;;;36.33;;
76405;SDS011;65234;50.044;19.258;2023-03-15T01:59:03;38.42;;;36.63;;
76405;SDS011;65234;50.044;19.258;2023-03-15T02:01:33;35.50;;;33.88;;
76405;SDS011;65234;50.044;19.258;2023-03-15T02:04:02;36.97;;;34.88;;
76405;SDS011;65234;50.044;19.258;2023-03-15T02:06:33;36.17;;;34.38;;
76405;SDS011;65234;50.044;19.258;2023-03-15T02:09:02;37.35;;;35.42;;
76405;SDS011;65234;50.044;19.258;2023-03-15T02:11:30;35.40;;;33.60;;
76405;SDS011;65234;50.044;19.258;2023-03-15T02:13:58;36.70;;;34.90;;
76405;SDS011;65234;50.044;19.258;2023-03-15T02:16:26;36.20;;;34.42;;
76405;SDS011;65234;50.044;19.258;2023-03-15T02:18:54;35.60;;;33.70;;
76405;SDS011;65234;50.044;19.258;2023-03-15T02:21:24;35.95;;;34.05;;
76405;SDS011;65234;50.044;19.258;2023-03-15T02:24:02;35.15;;;33.35;;
76405;SDS011;65234;50.044;19.258;2023-03-15T02:26:36;34.63;;;32.83;;
76405;SDS011;65234;50.044;19.258;2023-03-15T02:29:07;33.60;;;31.90;;
76405;SDS011;65234;50.044;19.258;2023-03-15T02:31:33;35.33;;;33.55;;
76405;SDS011;65234;50.044;19.258;2023-03-15T02:33:59;36.38;;;34.58;;
76405;SDS011;65234;50.044;19.258;2023-03-15T02:36:25;35.25;;;33.55;;
76405;SDS011;65234;50.044;19.258;2023-03-15T02:38:52;38.50;;;36.30;;
76405;SDS011;65234;50.044;19.258;2023-03-15T02:41:19;35.08;;;33.47;;
76405;SDS011;65234;50.044;19.258;2023-03-15T02:43:49;33.10;;;31.40;;
76405;SDS011;65234;50.044;19.258;2023-03-15T02:46:19;35.40;;;33.70;;
76405;SDS011;65234;50.044;19.258;2023-03-15T02:48:45;33.17;;;31.52;;
76405;SDS011;65234;50.044;19.258;2023-03-15T02:51:16;34.92;;;32.92;;
76405;SDS011;65234;50.044;19.258;2023-03-15T02:53:44;34.28;;;32.65;;
76405;SDS011;65234;50.044;19.258;2023-03-15T02:56:09;36.00;;;34.20;;
76405;SDS011;65234;50.044;19.258;2023-03-15T02:58:35;33.40;;;31.77;;
76405;SDS011;65234;50.044;19.258;2023-03-15T03:01:01;34.83;;;33.05;;
76405;SDS011;65234;50.044;19.258;2023-03-15T03:03:28;34.13;;;32.05;;
76405;SDS011;65234;50.044;19.258;2023-03-15T03:05:54;39.03;;;36.08;;
76405;SDS011;65234;50.044;19.258;2023-03-15T03:08:20;33.95;;;32.25;;
76405;SDS011;65234;50.044;19.258;2023-03-15T03:10:46;34.15;;;32.55;;
76405;SDS011;65234;50.044;19.258;2023-03-15T03:13:11;35.53;;;33.80;;
76405;SDS011;65234;50.044;19.258;2023-03-15T03:15:37;34.60;;;32.88;;
76405;SDS011;65234;50.044;19.258;2023-03-15T03:18:03;32.75;;;31.25;;
76405;SDS011;65234;50.044;19.258;2023-03-15T03:20:30;34.35;;;32.80;;
76405;SDS011;65234;50.044;19.258;2023-03-15T03:22:56;35.10;;;33.47;;
76405;SDS011;65234;50.044;19.258;2023-03-15T03:25:22;33.13;;;31.63;;
76405;SDS011;65234;50.044;19.258;2023-03-15T03:27:48;36.22;;;34.17;;
76405;SDS011;65234;50.044;19.258;2023-03-15T03:30:13;36.22;;;34.50;;
76405;SDS011;65234;50.044;19.258;2023-03-15T03:32:40;35.55;;;33.65;;
76405;SDS011;65234;50.044;19.258;2023-03-15T03:35:06;34.17;;;32.58;;
76405;SDS011;65234;50.044;19.258;2023-03-15T03:37:33;32.80;;;31.30;;
76405;SDS011;65234;50.044;19.258;2023-03-15T03:39:59;35.55;;;33.00;;
76405;SDS011;65234;50.044;19.258;2023-03-15T03:42:25;34.22;;;32.42;;
76405;SDS011;65234;50.044;19.258;2023-03-15T03:44:50;36.17;;;33.22;;
76405;SDS011;65234;50.044;19.258;2023-03-15T03:47:16;35.50;;;33.70;;
76405;SDS011;65234;50.044;19.258;2023-03-15T03:49:42;36.83;;;34.97;;
76405;SDS011;65234;50.044;19.258;2023-03-15T03:52:08;34.53;;;32.70;;
76405;SDS011;65234;50.044;19.258;2023-03-15T03:54:35;34.08;;;32.30;;
76405;SDS011;65234;50.044;19.258;2023-03-15T03:57:01;36.72;;;33.58;;
76405;SDS011;65234;50.044;19.258;2023-03-15T03:59:26;36.13;;;34.10;;
76405;SDS011;65234;50.044;19.258;2023-03-15T04:01:52;34.35;;;32.60;;
76405;SDS011;65234;50.044;19.258;2023-03-15T04:04:17;32.65;;;31.15;;
76405;SDS011;65234;50.044;19.258;2023-03-15T04:06:43;34.67;;;33.08;;
76405;SDS011;65234;50.044;19.258;2023-03-15T04:09:09;32.55;;;30.85;;
76405;SDS011;65234;50.044;19.258;2023-03-15T04:11:36;36.25;;;34.28;;
76405;SDS011;65234;50.044;19.258;2023-03-15T04:14:02;36.22;;;34.22;;
76405;SDS011;65234;50.044;19.258;2023-03-15T04:16:27;34.38;;;32.67;;
76405;SDS011;65234;50.044;19.258;2023-03-15T04:18:53;35.70;;;34.03;;
76405;SDS011;65234;50.044;19.258;2023-03-15T04:21:19;36.20;;;34.30;;
76405;SDS011;65234;50.044;19.258;2023-03-15T04:23:44;34.10;;;32.40;;
76405;SDS011;65234;50.044;19.258;2023-03-15T04:26:10;35.85;;;33.97;;
76405;SDS011;65234;50.044;19.258;2023-03-15T04:28:37;34.72;;;33.13;;
76405;SDS011;65234;50.044;19.258;2023-03-15T04:31:03;34.05;;;32.05;;
76405;SDS011;65234;50.044;19.258;2023-03-15T04:33:29;36.85;;;34.40;;
76405;SDS011;65234;50.044;19.258;2023-03-15T04:35:54;34.90;;;33.28;;
76405;SDS011;65234;50.044;19.258;2023-03-15T04:38:20;33.58;;;31.83;;
76405;SDS011;65234;50.044;19.258;2023-03-15T04:40:46;34.60;;;32.88;;
76405;SDS011;65234;50.044;19.258;2023-03-15T04:43:11;34.00;;;32.40;;
76405;SDS011;65234;50.044;19.258;2023-03-15T04:45:38;36.88;;;34.03;;
76405;SDS011;65234;50.044;19.258;2023-03-15T04:48:04;34.78;;;32.95;;
76405;SDS011;65234;50.044;19.258;2023-03-15T04:50:30;31.58;;;30.08;;
76405;SDS011;65234;50.044;19.258;2023-03-15T04:52:56;33.10;;;31.35;;
76405;SDS011;65234;50.044;19.258;2023-03-15T04:55:22;32.67;;;30.98;;
76405;SDS011;65234;50.044;19.258;2023-03-15T04:57:47;35.58;;;33.67;;
76405;SDS011;65234;50.044;19.258;2023-03-15T05:00:14;33.20;;;31.17;;
76405;SDS011;65234;50.044;19.258;2023-03-15T05:02:41;34.22;;;32.42;;
76405;SDS011;65234;50.044;19.258;2023-03-15T05:05:07;32.17;;;30.27;;
76405;SDS011;65234;50.044;19.258;2023-03-15T05:07:34;34.88;;;31.70;;
76405;SDS011;65234;50.044;19.258;2023-03-15T05:10:00;31.70;;;30.10;;
76405;SDS011;65234;50.044;19.258;2023-03-15T05:12:26;33.22;;;31.42;;
76405;SDS011;65234;50.044;19.258;2023-03-15T05:14:52;32.70;;;31.20;;
76405;SDS011;65234;50.044;19.258;2023-03-15T05:17:18;33.47;;;31.48;;
76405;SDS011;65234;50.044;19.258;2023-03-15T05:19:45;33.47;;;31.08;;
76405;SDS011;65234;50.044;19.258;2023-03-15T05:22:11;33.90;;;32.30;;
76405;SDS011;65234;50.044;19.258;2023-03-15T05:24:37;32.05;;;30.42;;
76405;SDS011;65234;50.044;19.258;2023-03-15T05:27:02;33.97;;;32.05;;
76405;SDS011;65234;50.044;19.258;2023-03-15T05:29:28;30.95;;;29.38;;
76405;SDS011;65234;50.044;19.258;2023-03-15T05:31:54;35.40;;;33.50;;
76405;SDS011;65234;50.044;19.258;2023-03-15T05:34:20;34.53;;;32.70;;
76405;SDS011;65234;50.044;19.258;2023-03-15T05:36:47;33.28;;;31.67;;
76405;SDS011;65234;50.044;19.258;2023-03-15T05:39:13;31.63;;;30.10;;
76405;SDS011;65234;50.044;19.258;2023-03-15T05:41:38;34.13;;;32.35;;
76405;SDS011;65234;50.044;19.258;2023-03-15T05:44:04;37.80;;;31.55;;
76405;SDS011;65234;50.044;19.258;2023-03-15T05:46:30;34.03;;;32.20;;
76405;SDS011;65234;50.044;19.258;2023-03-15T05:48:56;33.88;;;31.98;;
76405;SDS011;65234;50.044;19.258;2023-03-15T05:51:21;33.42;;;31.70;;
76405;SDS011;65234;50.044;19.258;2023-03-15T05:53:48;33.28;;;31.58;;
76405;SDS011;65234;50.044;19.258;2023-03-15T05:56:14;35.22;;;32.60;;
76405;SDS011;65234;50.044;19.258;2023-03-15T05:58:40;34.03;;;32.33;;
76405;SDS011;65234;50.044;19.258;2023-03-15T06:01:05;35.20;;;33.42;;
76405;SDS011;65234;50.044;19.258;2023-03-15T06:03:31;32.75;;;31.17;;
76405;SDS011;65234;50.044;19.258;2023-03-15T06:05:57;34.30;;;32.42;;
76405;SDS011;65234;50.044;19.258;2023-03-15T06:08:23;33.40;;;31.50;;
76405;SDS011;65234;50.044;19.258;2023-03-15T06:10:50;36.25;;;34.35;;
76405;SDS011;65234;50.044;19.258;2023-03-15T06:13:16;32.58;;;30.83;;
76405;SDS011;65234;50.044;19.258;2023-03-15T06:15:41;36.00;;;34.03;;
76405;SDS011;65234;50.044;19.258;2023-03-15T06:18:07;34.67;;;32.88;;
76405;SDS011;65234;50.044;19.258;2023-03-15T06:20:33;35.97;;;34.03;;
76405;SDS011;65234;50.044;19.258;2023-03-15T06:22:59;34.80;;;31.63;;
76405;SDS011;65234;50.044;19.258;2023-03-15T06:25:25;35.17;;;33.08;;
76405;SDS011;65234;50.044;19.258;2023-03-15T06:27:52;35.88;;;33.75;;
76405;SDS011;65234;50.044;19.258;2023-03-15T06:30:18;32.92;;;31.00;;
76405;SDS011;65234;50.044;19.258;2023-03-15T06:32:44;34.08;;;32.10;;
76405;SDS011;65234;50.044;19.258;2023-03-15T06:35:10;34.25;;;32.63;;
76405;SDS011;65234;50.044;19.258;2023-03-15T06:37:35;33.78;;;32.03;;
76405;SDS011;65234;50.044;19.258;2023-03-15T06:40:02;35.47;;;33.67;;
76405;SDS011;65234;50.044;19.258;2023-03-15T06:42:29;33.20;;;31.55;;
76405;SDS011;65234;50.044;19.258;2023-03-15T06:44:56;37.10;;;34.95;;
76405;SDS011;65234;50.044;19.258;2023-03-15T06:47:21;35.85;;;33.70;;
76405;SDS011;65234;50.044;19.258;2023-03-15T06:49:47;35.67;;;34.00;;
76405;SDS011;65234;50.044;19.258;2023-03-15T06:52:13;35.80;;;33.80;;
76405;SDS011;65234;50.044;19.258;2023-03-15T06:54:38;34.58;;;32.83;;
76405;SDS011;65234;50.044;19.258;2023-03-15T06:57:04;35.25;;;33.33;;
76405;SDS011;65234;50.044;19.258;2023-03-15T06:59:39;36.85;;;34.90;;
76405;SDS011;65234;50.044;19.258;2023-03-15T07:02:08;37.88;;;35.55;;
76405;SDS011;65234;50.044;19.258;2023-03-15T07:04:38;36.63;;;34.70;;
76405;SDS011;65234;50.044;19.258;2023-03-15T07:07:04;35.65;;;31.92;;
76405;SDS011;65234;50.044;19.258;2023-03-15T07:09:29;36.30;;;34.30;;
76405;SDS011;65234;50.044;19.258;2023-03-15T07:11:55;35.95;;;34.20;;
76405;SDS011;65234;50.044;19.258;2023-03-15T07:14:21;36.80;;;34.80;;
76405;SDS011;65234;50.044;19.258;2023-03-15T07:16:47;36.78;;;34.28;;
76405;SDS011;65234;50.044;19.258;2023-03-15T07:19:14;37.65;;;35.38;;
76405;SDS011;65234;50.044;19.258;2023-03-15T07:21:39;37.60;;;35.53;;
76405;SDS011;65234;50.044;19.258;2023-03-15T07:24:05;39.53;;;36.83;;
76405;SDS011;65234;50.044;19.258;2023-03-15T07:26:31;36.92;;;35.03;;
76405;SDS011;65234;50.044;19.258;2023-03-15T07:28:57;41.10;;;38.05;;
76405;SDS011;65234;50.044;19.258;2023-03-15T07:31:23;37.63;;;35.63;;
76405;SDS011;65234;50.044;19.258;2023-03-15T07:33:48;33.70;;;32.00;;
76405;SDS011;65234;50.044;19.258;2023-03-15T07:36:15;38.78;;;36.22;;
76405;SDS011;65234;50.044;19.258;2023-03-15T07:38:41;37.30;;;35.25;;
76405;SDS011;65234;50.044;19.258;2023-03-15T07:41:07;36.63;;;34.63;;
76405;SDS011;65234;50.044;19.258;2023-03-15T07:43:33;37.17;;;35.05;;
76405;SDS011;65234;50.044;19.258;2023-03-15T07:45:59;35.25;;;33.40;;
76405;SDS011;65234;50.044;19.258;2023-03-15T07:48:25;36.53;;;34.30;;
76405;SDS011;65234;50.044;19.258;2023-03-15T07:50:50;34.13;;;32.25;;
76405;SDS011;65234;50.044;19.258;2023-03-15T07:53:17;37.13;;;35.05;;
76405;SDS011;65234;50.044;19.258;2023-03-15T07:55:43;36.28;;;34.05;;
76405;SDS011;65234;50.044;19.258;2023-03-15T07:58:11;39.42;;;36.08;;
76405;SDS011;65234;50.044;19.258;2023-03-15T08:00:37;35.60;;;33.20;;
76405;SDS011;65234;50.044;19.258;2023-03-15T08:03:02;37.05;;;35.15;;
76405;SDS011;65234;50.044;19.258;2023-03-15T08:05:28;38.67;;;36.45;;
76405;SDS011;65234;50.044;19.258;2023-03-15T08:07:54;37.58;;;35.47;;
76405;SDS011;65234;50.044;19.258;2023-03-15T08:10:21;36.42;;;34.58;;
76405;SDS011;65234;50.044;19.258;2023-03-15T08:12:47;39.63;;;37.22;;
76405;SDS011;65234;50.044;19.258;2023-03-15T08:15:14;35.83;;;34.13;;
76405;SDS011;65234;50.044;19.258;2023-03-15T08:17:40;39.33;;;36.95;;
76405;SDS011;65234;50.044;19.258;2023-03-15T08:20:08;36.20;;;34.30;;
76405;SDS011;65234;50.044;19.258;2023-03-15T08:22:35;40.95;;;38.38;;
76405;SDS011;65234;50.044;19.258;2023-03-15T08:25:01;40.30;;;38.25;;
76405;SDS011;65234;50.044;19.258;2023-03-15T08:27:28;39.03;;;36.92;;
76405;SDS011;65234;50.044;19.258;2023-03-15T08:29:54;39.13;;;37.13;;
76405;SDS011;65234;50.044;19.258;2023-03-15T08:32:19;39.85;;;37.65;;
76405;SDS011;65234;50.044;19.258;2023-03-15T08:34:45;37.67;;;35.90;;
76405;SDS011;65234;50.044;19.258;2023-03-15T08:37:11;40.15;;;37.95;;
76405;SDS011;65234;50.044;19.258;2023-03-15T08:39:37;39.50;;;37.60;;
76405;SDS011;65234;50.044;19.258;2023-03-15T08:42:03;40.33;;;38.33;;
76405;SDS011;65234;50.044;19.258;2023-03-15T08:44:31;39.65;;;37.63;;
76405;SDS011;65234;50.044;19.258;2023-03-15T08:46:57;38.30;;;36.40;;
76405;SDS011;65234;50.044;19.258;2023-03-15T08:49:23;40.05;;;37.92;;
76405;SDS011;65234;50.044;19.258;2023-03-15T08:51:48;40.00;;;37.78;;
76405;SDS011;65234;50.044;19.258;2023-03-15T08:54:14;38.90;;;37.00;;
76405;SDS011;65234;50.044;19.258;2023-03-15T08:56:40;39.88;;;37.83;;
76405;SDS011;65234;50.044;19.258;2023-03-15T08:59:06;41.88;;;39.13;;
76405;SDS011;65234;50.044;19.258;2023-03-15T09:01:33;40.80;;;38.65;;
76405;SDS011;65234;50.044;19.258;2023-03-15T09:03:59;40.03;;;38.13;;
76405;SDS011;65234;50.044;19.258;2023-03-15T09:06:24;42.08;;;39.78;;
76405;SDS011;65234;50.044;19.258;2023-03-15T09:08:50;39.40;;;37.50;;
76405;SDS011;65234;50.044;19.258;2023-03-15T09:11:16;38.03;;;36.10;;
76405;SDS011;65234;50.044;19.258;2023-03-15T09:13:42;40.80;;;38.40;;
76405;SDS011;65234;50.044;19.258;2023-03-15T09:16:07;40.85;;;38.85;;
76405;SDS011;65234;50.044;19.258;2023-03-15T09:18:35;41.33;;;39.35;;
76405;SDS011;65234;50.044;19.258;2023-03-15T09:21:00;43.08;;;40.92;;
76405;SDS011;65234;50.044;19.258;2023-03-15T09:23:26;40.90;;;38.97;;
76405;SDS011;65234;50.044;19.258;2023-03-15T09:25:52;40.45;;;38.13;;
76405;SDS011;65234;50.044;19.258;2023-03-15T09:28:17;40.95;;;39.08;;
76405;SDS011;65234;50.044;19.258;2023-03-15T09:30:43;43.05;;;40.95;;
76405;SDS011;65234;50.044;19.258;2023-03-15T09:33:09;41.30;;;39.35;;
76405;SDS011;65234;50.044;19.258;2023-03-15T09:35:36;40.85;;;38.75;;
76405;SDS011;65234;50.044;19.258;2023-03-15T09:38:02;41.25;;;39.10;;
76405;SDS011;65234;50.044;19.258;2023-03-15T09:40:28;43.95;;;41.75;;
76405;SDS011;65234;50.044;19.258;2023-03-15T09:42:58;44.10;;;41.90;;
76405;SDS011;65234;50.044;19.258;2023-03-15T09:45:30;42.28;;;40.30;;
76405;SDS011;65234;50.044;19.258;2023-03-15T09:48:07;41.30;;;39.35;;
76405;SDS011;65234;50.044;19.258;2023-03-15T09:50:38;43.85;;;41.75;;
76405;SDS011;65234;50.044;19.258;2023-03-15T09:53:11;41.25;;;39.22;;
76405;SDS011;65234;50.044;19.258;2023-03-15T09:55:40;41.38;;;39.28;;
76405;SDS011;65234;50.044;19.258;2023-03-15T09:58:09;41.63;;;39.65;;
76405;SDS011;65234;50.044;19.258;2023-03-15T10:00:39;42.05;;;40.05;;
76405;SDS011;65234;50.044;19.258;2023-03-15T10:03:10;42.08;;;39.97;;
76405;SDS011;65234;50.044;19.258;2023-03-15T10:05:44;42.05;;;39.80;;
76405;SDS011;65234;50.044;19.258;2023-03-15T10:08:13;40.88;;;39.00;;
76405;SDS011;65234;50.044;19.258;2023-03-15T10:10:43;40.40;;;38.47;;
76405;SDS011;65234;50.044;19.258;2023-03-15T10:13:17;42.03;;;39.72;;
76405;SDS011;65234;50.044;19.258;2023-03-15T10:15:58;39.08;;;37.13;;
76405;SDS011;65234;50.044;19.258;2023-03-15T10:18:33;41.38;;;39.38;;
76405;SDS011;65234;50.044;19.258;2023-03-15T10:21:15;41.22;;;39.22;;
76405;SDS011;65234;50.044;19.258;2023-03-15T10:23:54;41.85;;;39.88;;
76405;SDS011;65234;50.044;19.258;2023-03-15T10:26:21;41.05;;;39.10;;
76405;SDS011;65234;50.044;19.258;2023-03-15T10:28:50;42.70;;;40.65;;
76405;SDS011;65234;50.044;19.258;2023-03-15T10:31:18;41.75;;;39.47;;
76405;SDS011;65234;50.044;19.258;2023-03-15T10:33:46;41.97;;;39.97;;
76405;SDS011;65234;50.044;19.258;2023-03-15T10:36:15;44.22;;;41.75;;
76405;SDS011;65234;50.044;19.258;2023-03-15T10:38:43;41.85;;;39.80;;
76405;SDS011;65234;50.044;19.258;2023-03-15T10:41:10;43.28;;;40.53;;
76405;SDS011;65234;50.044;19.258;2023-03-15T10:43:37;43.92;;;41.83;;
76405;SDS011;65234;50.044;19.258;2023-03-15T10:46:03;44.03;;;41.63;;
76405;SDS011;65234;50.044;19.258;2023-03-15T10:48:32;42.13;;;40.10;;
76405;SDS011;65234;50.044;19.258;2023-03-15T10:51:00;41.85;;;39.75;;
76405;SDS011;65234;50.044;19.258;2023-03-15T10:53:29;46.67;;;43.92;;
76405;SDS011;65234;50.044;19.258;2023-03-15T10:55:59;46.42;;;44.10;;
76405;SDS011;65234;50.044;19.258;2023-03-15T10:58:26;47.75;;;44.70;;
76405;SDS011;65234;50.044;19.258;2023-03-15T11:00:57;42.40;;;40.40;;
76405;SDS011;65234;50.044;19.258;2023-03-15T11:03:25;43.80;;;41.67;;
76405;SDS011;65234;50.044;19.258;2023-03-15T11:05:52;44.40;;;41.92;;
76405;SDS011;65234;50.044;19.258;2023-03-15T11:08:20;44.40;;;42.20;;
76405;SDS011;65234;50.044;19.258;2023-03-15T11:10:53;44.85;;;42.65;;
76405;SDS011;65234;50.044;19.258;2023-03-15T11:13:21;43.75;;;41.20;;
76405;SDS011;65234;50.044;19.258;2023-03-15T11:15:53;46.75;;;44.45;;
76405;SDS011;65234;50.044;19.258;2023-03-15T11:18:27;42.78;;;40.78;;
76405;SDS011;65234;50.044;19.258;2023-03-15T11:20:56;46.55;;;44.25;;
76405;SDS011;65234;50.044;19.258;2023-03-15T11:23:23;45.40;;;43.22;;
76405;SDS011;65234;50.044;19.258;2023-03-15T11:25:53;44.17;;;41.72;;
76405;SDS011;65234;50.044;19.258;2023-03-15T11:28:19;45.88;;;43.78;;
76405;SDS011;65234;50.044;19.258;2023-03-15T11:30:49;45.92;;;43.63;;
76405;SDS011;65234;50.044;19.258;2023-03-15T11:33:21;48.40;;;45.88;;
76405;SDS011;65234;50.044;19.258;2023-03-15T11:35:53;47.42;;;44.00;;
76405;SDS011;65234;50.044;19.258;2023-03-15T11:38:24;43.60;;;41.55;;
76405;SDS011;65234;50.044;19.258;2023-03-15T11:40:55;44.53;;;42.50;;
76405;SDS011;65234;50.044;19.258;2023-03-15T11:43:24;49.53;;;46.75;;
76405;SDS011;65234;50.044;19.258;2023-03-15T11:45:54;50.08;;;47.40;;
76405;SDS011;65234;50.044;19.258;2023-03-15T11:48:23;47.72;;;45.53;;
76405;SDS011;65234;50.044;19.258;2023-03-15T11:50:52;45.20;;;43.15;;
76405;SDS011;65234;50.044;19.258;2023-03-15T11:53:19;44.95;;;42.65;;
76405;SDS011;65234;50.044;19.258;2023-03-15T11:55:48;47.35;;;44.85;;
76405;SDS011;65234;50.044;19.258;2023-03-15T11:58:29;48.65;;;46.05;;
76405;SDS011;65234;50.044;19.258;2023-03-15T12:00:59;45.20;;;42.60;;
76405;SDS011;65234;50.044;19.258;2023-03-15T12:03:36;44.30;;;42.17;;
76405;SDS011;65234;50.044;19.258;2023-03-15T12:06:07;46.22;;;43.63;;
76405;SDS011;65234;50.044;19.258;2023-03-15T12:08:57;51.33;;;47.63;;
76405;SDS011;65234;50.044;19.258;2023-03-15T12:11:36;49.60;;;46.90;;
76405;SDS011;65234;50.044;19.258;2023-03-15T12:14:08;48.10;;;45.60;;
76405;SDS011;65234;50.044;19.258;2023-03-15T12:16:48;49.40;;;46.78;;
76405;SDS011;65234;50.044;19.258;2023-03-15T12:19:14;48.63;;;45.95;;
76405;SDS011;65234;50.044;19.258;2023-03-15T12:21:43;46.35;;;44.15;;
76405;SDS011;65234;50.044;19.258;2023-03-15T12:24:14;47.58;;;45.17;;
76405;SDS011;65234;50.044;19.258;2023-03-15T12:26:45;49.85;;;47.30;;
76405;SDS011;65234;50.044;19.258;2023-03-15T12:29:16;48.38;;;46.00;;
76405;SDS011;65234;50.044;19.258;2023-03-15T12:31:48;49.00;;;46.40;;
76405;SDS011;65234;50.044;19.258;2023-03-15T12:34:21;53.58;;;50.10;;
76405;SDS011;65234;50.044;19.258;2023-03-15T12:36:50;50.38;;;47.50;;
76405;SDS011;65234;50.044;19.258;2023-03-15T12:39:19;51.40;;;48.30;;
76405;SDS011;65234;50.044;19.258;2023-03-15T12:41:47;50.20;;;47.28;;
76405;SDS011;65234;50.044;19.258;2023-03-15T12:44:20;51.33;;;48.38;;
76405;SDS011;65234;50.044;19.258;2023-03-15T12:46:53;50.05;;;47.45;;
76405;SDS011;65234;50.044;19.258;2023-03-15T12:51:58;46.85;;;44.55;;
76405;SDS011;65234;50.044;19.258;2023-03-15T12:54:29;47.45;;;44.85;;
76405;SDS011;65234;50.044;19.258;2023-03-15T12:56:59;49.67;;;46.92;;
76405;SDS011;65234;50.044;19.258;2023-03-15T13:02:19;48.72;;;46.22;;
76405;SDS011;65234;50.044;19.258;2023-03-15T13:04:55;49.75;;;45.70;;
76405;SDS011;65234;50.044;19.258;2023-03-15T13:07:26;48.40;;;45.80;;
76405;SDS011;65234;50.044;19.258;2023-03-15T13:10:02;50.13;;;46.90;;
76405;SDS011;65234;50.044;19.258;2023-03-15T13:15:11;43.97;;;41.83;;
76405;SDS011;65234;50.044;19.258;2023-03-15T13:17:46;45.85;;;43.70;;
76405;SDS011;65234;50.044;19.258;2023-03-15T13:20:17;49.10;;;46.53;;
76405;SDS011;65234;50.044;19.258;2023-03-15T13:22:56;45.35;;;43.08;;
76405;SDS011;65234;50.044;19.258;2023-03-15T13:25:31;45.40;;;42.67;;
76405;SDS011;65234;50.044;19.258;2023-03-15T13:28:04;43.75;;;41.65;;
76405;SDS011;65234;50.044;19.258;2023-03-15T13:30:39;44.60;;;42.05;;
76405;SDS011;65234;50.044;19.258;2023-03-15T13:33:11;49.78;;;46.88;;
76405;SDS011;65234;50.044;19.258;2023-03-15T13:35:44;46.60;;;44.42;;
76405;SDS011;65234;50.044;19.258;2023-03-15T13:38:24;45.90;;;43.60;;
76405;SDS011;65234;50.044;19.258;2023-03-15T13:40:53;46.47;;;43.97;;
76405;SDS011;65234;50.044;19.258;2023-03-15T13:43:22;46.40;;;44.20;;
76405;SDS011;65234;50.044;19.258;2023-03-15T13:45:51;49.03;;;46.58;;
76405;SDS011;65234;50.044;19.258;2023-03-15T13:48:16;46.30;;;44.10;;
76405;SDS011;65234;50.044;19.258;2023-03-15T13:50:45;47.03;;;44.58;;
76405;SDS011;65234;50.044;19.258;2023-03-15T13:53:13;46.78;;;44.47;;
76405;SDS011;65234;50.044;19.258;2023-03-15T13:55:48;45.95;;;43.58;;
76405;SDS011;65234;50.044;19.258;2023-03-15T13:58:15;42.92;;;40.85;;
76405;SDS011;65234;50.044;19.258;2023-03-15T14:00:41;44.70;;;42.30;;
76405;SDS011;65234;50.044;19.258;2023-03-15T14:03:10;45.88;;;43.67;;
76405;SDS011;65234;50.044;19.258;2023-03-15T14:05:42;47.05;;;44.70;;
76405;SDS011;65234;50.044;19.258;2023-03-15T14:08:14;48.92;;;46.38;;
76405;SDS011;65234;50.044;19.258;2023-03-15T14:10:49;47.15;;;44.78;;
76405;SDS011;65234;50.044;19.258;2023-03-15T14:13:23;46.55;;;44.22;;
76405;SDS011;65234;50.044;19.258;2023-03-15T14:15:54;49.22;;;46.17;;
76405;SDS011;65234;50.044;19.258;2023-03-15T14:18:23;47.78;;;45.28;;
76405;SDS011;65234;50.044;19.258;2023-03-15T14:20:53;46.63;;;43.97;;